sensor_id;sensor_type;location;lat;lon;timestamp;P1;durP1;ratioP1;P2;durP2;ratioP2
55067;SDS011;40965;52.368;9.712;2022-08-21T00:01:52;3.63;;;1.77;;
55067;SDS011;40965;52.368;9.712;2022-08-21T00:04:20;4.55;;;2.17;;
55067;SDS011;40965;52.368;9.712;2022-08-21T00:06:47;4.25;;;1.33;;
55067;SDS011;40965;52.368;9.712;2022-08-21T00:09:18;3.58;;;1.20;;
55067;SDS011;40965;52.368;9.712;2022-08-21T00:11:46;3.40;;;1.52;;
55067;SDS011;40965;52.368;9.712;2022-08-21T00:14:14;2.17;;;1.73;;
55067;SDS011;40965;52.368;9.712;2022-08-21T00:16:41;4.97;;;1.88;;
55067;SDS011;40965;52.368;9.712;2022-08-21T00:19:08;2.70;;;1.02;;
55067;SDS011;40965;52.368;9.712;2022-08-21T00:21:35;4.38;;;1.30;;
55067;SDS011;40965;52.368;9.712;2022-08-21T00:24:02;2.30;;;1.48;;
55067;SDS011;40965;52.368;9.712;2022-08-21T00:26:33;2.15;;;1.40;;
55067;SDS011;40965;52.368;9.712;2022-08-21T00:29:00;3.20;;;1.10;;
55067;SDS011;40965;52.368;9.712;2022-08-21T00:31:26;3.85;;;1.70;;
55067;SDS011;40965;52.368;9.712;2022-08-21T00:33:53;3.13;;;1.63;;
55067;SDS011;40965;52.368;9.712;2022-08-21T00:36:22;2.78;;;1.55;;
55067;SDS011;40965;52.368;9.712;2022-08-21T00:38:52;5.57;;;2.25;;
55067;SDS011;40965;52.368;9.712;2022-08-21T00:41:19;3.30;;;1.67;;
55067;SDS011;40965;52.368;9.712;2022-08-21T00:43:48;3.65;;;1.35;;
55067;SDS011;40965;52.368;9.712;2022-08-21T00:46:16;2.97;;;1.50;;
55067;SDS011;40965;52.368;9.712;2022-08-21T00:48:43;5.90;;;2.33;;
55067;SDS011;40965;52.368;9.712;2022-08-21T00:51:12;2.80;;;1.50;;
55067;SDS011;40965;52.368;9.712;2022-08-21T00:53:48;3.85;;;1.63;;
55067;SDS011;40965;52.368;9.712;2022-08-21T00:56:24;6.28;;;2.45;;
55067;SDS011;40965;52.368;9.712;2022-08-21T00:58:52;6.03;;;1.92;;
55067;SDS011;40965;52.368;9.712;2022-08-21T01:01:23;3.53;;;2.67;;
55067;SDS011;40965;52.368;9.712;2022-08-21T01:03:50;1.40;;;1.30;;
55067;SDS011;40965;52.368;9.712;2022-08-21T01:06:17;3.25;;;1.77;;
55067;SDS011;40965;52.368;9.712;2022-08-21T01:08:44;6.80;;;2.50;;
55067;SDS011;40965;52.368;9.712;2022-08-21T01:11:13;3.75;;;2.15;;
55067;SDS011;40965;52.368;9.712;2022-08-21T01:13:41;6.68;;;2.20;;
55067;SDS011;40965;52.368;9.712;2022-08-21T01:16:10;2.67;;;1.48;;
55067;SDS011;40965;52.368;9.712;2022-08-21T01:18:42;2.45;;;2.08;;
55067;SDS011;40965;52.368;9.712;2022-08-21T01:21:32;5.32;;;2.13;;
55067;SDS011;40965;52.368;9.712;2022-08-21T01:23:58;6.18;;;2.42;;
55067;SDS011;40965;52.368;9.712;2022-08-21T01:26:27;4.40;;;2.00;;
55067;SDS011;40965;52.368;9.712;2022-08-21T01:29:07;3.53;;;2.10;;
55067;SDS011;40965;52.368;9.712;2022-08-21T01:31:57;2.13;;;1.95;;
55067;SDS011;40965;52.368;9.712;2022-08-21T01:34:25;5.10;;;2.25;;
55067;SDS011;40965;52.368;9.712;2022-08-21T01:36:52;3.17;;;2.05;;
55067;SDS011;40965;52.368;9.712;2022-08-21T01:39:23;3.85;;;2.08;;
55067;SDS011;40965;52.368;9.712;2022-08-21T01:41:50;4.70;;;2.42;;
55067;SDS011;40965;52.368;9.712;2022-08-21T01:44:20;4.45;;;2.17;;
55067;SDS011;40965;52.368;9.712;2022-08-21T01:46:51;2.85;;;1.80;;
55067;SDS011;40965;52.368;9.712;2022-08-21T01:49:21;4.32;;;2.15;;
55067;SDS011;40965;52.368;9.712;2022-08-21T01:51:51;7.80;;;2.75;;
55067;SDS011;40965;52.368;9.712;2022-08-21T01:54:21;4.75;;;2.65;;
55067;SDS011;40965;52.368;9.712;2022-08-21T01:56:49;5.70;;;1.85;;
55067;SDS011;40965;52.368;9.712;2022-08-21T01:59:18;3.50;;;2.10;;
55067;SDS011;40965;52.368;9.712;2022-08-21T02:01:45;3.63;;;2.05;;
55067;SDS011;40965;52.368;9.712;2022-08-21T02:04:16;5.63;;;2.20;;
55067;SDS011;40965;52.368;9.712;2022-08-21T02:06:51;2.60;;;1.52;;
55067;SDS011;40965;52.368;9.712;2022-08-21T02:09:18;6.30;;;2.50;;
55067;SDS011;40965;52.368;9.712;2022-08-21T02:11:46;4.20;;;2.45;;
55067;SDS011;40965;52.368;9.712;2022-08-21T02:14:17;4.00;;;2.67;;
55067;SDS011;40965;52.368;9.712;2022-08-21T02:16:44;3.58;;;2.53;;
55067;SDS011;40965;52.368;9.712;2022-08-21T02:19:12;5.28;;;2.42;;
55067;SDS011;40965;52.368;9.712;2022-08-21T02:21:40;2.95;;;2.00;;
55067;SDS011;40965;52.368;9.712;2022-08-21T02:24:10;7.82;;;3.00;;
55067;SDS011;40965;52.368;9.712;2022-08-21T02:26:41;5.55;;;2.70;;
55067;SDS011;40965;52.368;9.712;2022-08-21T02:29:10;4.97;;;2.70;;
55067;SDS011;40965;52.368;9.712;2022-08-21T02:31:37;2.65;;;2.25;;
55067;SDS011;40965;52.368;9.712;2022-08-21T02:34:06;4.75;;;2.30;;
55067;SDS011;40965;52.368;9.712;2022-08-21T02:36:40;2.78;;;2.20;;
55067;SDS011;40965;52.368;9.712;2022-08-21T02:39:10;5.25;;;2.40;;
55067;SDS011;40965;52.368;9.712;2022-08-21T02:41:38;3.58;;;2.42;;
55067;SDS011;40965;52.368;9.712;2022-08-21T02:44:05;2.55;;;2.33;;
55067;SDS011;40965;52.368;9.712;2022-08-21T02:46:32;5.65;;;2.40;;
55067;SDS011;40965;52.368;9.712;2022-08-21T02:48:59;3.08;;;2.08;;
55067;SDS011;40965;52.368;9.712;2022-08-21T02:51:26;3.10;;;2.25;;
55067;SDS011;40965;52.368;9.712;2022-08-21T02:53:53;5.50;;;2.65;;
55067;SDS011;40965;52.368;9.712;2022-08-21T02:56:26;8.63;;;2.47;;
55067;SDS011;40965;52.368;9.712;2022-08-21T02:58:54;3.70;;;2.53;;
55067;SDS011;40965;52.368;9.712;2022-08-21T03:01:21;3.80;;;2.05;;
55067;SDS011;40965;52.368;9.712;2022-08-21T03:03:49;3.60;;;2.15;;
55067;SDS011;40965;52.368;9.712;2022-08-21T03:06:17;4.65;;;2.25;;
55067;SDS011;40965;52.368;9.712;2022-08-21T03:08:52;5.70;;;2.20;;
55067;SDS011;40965;52.368;9.712;2022-08-21T03:11:20;4.30;;;2.30;;
55067;SDS011;40965;52.368;9.712;2022-08-21T03:13:47;3.80;;;1.85;;
55067;SDS011;40965;52.368;9.712;2022-08-21T03:16:15;4.25;;;2.33;;
55067;SDS011;40965;52.368;9.712;2022-08-21T03:18:43;4.32;;;2.03;;
55067;SDS011;40965;52.368;9.712;2022-08-21T03:21:15;6.30;;;2.72;;
55067;SDS011;40965;52.368;9.712;2022-08-21T03:23:43;5.68;;;2.75;;
55067;SDS011;40965;52.368;9.712;2022-08-21T03:26:11;4.03;;;2.67;;
55067;SDS011;40965;52.368;9.712;2022-08-21T03:28:38;8.60;;;3.72;;
55067;SDS011;40965;52.368;9.712;2022-08-21T03:31:08;5.47;;;1.90;;
55067;SDS011;40965;52.368;9.712;2022-08-21T03:33:36;3.53;;;2.67;;
55067;SDS011;40965;52.368;9.712;2022-08-21T03:36:05;2.53;;;2.00;;
55067;SDS011;40965;52.368;9.712;2022-08-21T03:38:35;3.45;;;3.08;;
55067;SDS011;40965;52.368;9.712;2022-08-21T03:41:06;7.90;;;2.63;;
55067;SDS011;40965;52.368;9.712;2022-08-21T03:43:34;3.47;;;2.65;;
55067;SDS011;40965;52.368;9.712;2022-08-21T03:46:02;6.53;;;2.45;;
55067;SDS011;40965;52.368;9.712;2022-08-21T03:48:31;3.55;;;2.08;;
55067;SDS011;40965;52.368;9.712;2022-08-21T03:51:02;2.75;;;2.03;;
55067;SDS011;40965;52.368;9.712;2022-08-21T03:53:32;3.63;;;2.15;;
55067;SDS011;40965;52.368;9.712;2022-08-21T03:55:59;8.80;;;2.40;;
55067;SDS011;40965;52.368;9.712;2022-08-21T03:58:27;5.32;;;2.95;;
55067;SDS011;40965;52.368;9.712;2022-08-21T04:00:56;4.22;;;2.22;;
55067;SDS011;40965;52.368;9.712;2022-08-21T04:03:24;4.75;;;2.30;;
55067;SDS011;40965;52.368;9.712;2022-08-21T04:05:55;5.15;;;2.63;;
55067;SDS011;40965;52.368;9.712;2022-08-21T04:08:21;6.93;;;2.55;;
55067;SDS011;40965;52.368;9.712;2022-08-21T04:10:49;6.20;;;2.28;;
55067;SDS011;40965;52.368;9.712;2022-08-21T04:13:20;3.60;;;1.95;;
55067;SDS011;40965;52.368;9.712;2022-08-21T04:15:48;4.10;;;2.22;;
55067;SDS011;40965;52.368;9.712;2022-08-21T04:18:15;4.15;;;2.15;;
55067;SDS011;40965;52.368;9.712;2022-08-21T04:20:43;3.80;;;2.30;;
55067;SDS011;40965;52.368;9.712;2022-08-21T04:23:11;4.00;;;2.42;;
55067;SDS011;40965;52.368;9.712;2022-08-21T04:25:38;8.43;;;2.60;;
55067;SDS011;40965;52.368;9.712;2022-08-21T04:28:05;4.55;;;2.33;;
55067;SDS011;40965;52.368;9.712;2022-08-21T04:30:33;3.67;;;2.90;;
55067;SDS011;40965;52.368;9.712;2022-08-21T04:33:00;3.72;;;2.17;;
55067;SDS011;40965;52.368;9.712;2022-08-21T04:35:28;4.43;;;2.67;;
55067;SDS011;40965;52.368;9.712;2022-08-21T04:37:55;4.10;;;2.40;;
55067;SDS011;40965;52.368;9.712;2022-08-21T04:40:25;3.53;;;1.83;;
55067;SDS011;40965;52.368;9.712;2022-08-21T04:42:54;5.32;;;2.38;;
55067;SDS011;40965;52.368;9.712;2022-08-21T04:45:37;7.10;;;2.30;;
55067;SDS011;40965;52.368;9.712;2022-08-21T04:48:08;5.30;;;2.75;;
55067;SDS011;40965;52.368;9.712;2022-08-21T04:50:55;2.33;;;2.05;;
55067;SDS011;40965;52.368;9.712;2022-08-21T04:53:34;4.30;;;2.13;;
55067;SDS011;40965;52.368;9.712;2022-08-21T04:56:07;4.15;;;2.35;;
55067;SDS011;40965;52.368;9.712;2022-08-21T04:58:45;3.92;;;2.25;;
55067;SDS011;40965;52.368;9.712;2022-08-21T05:01:19;6.22;;;1.77;;
55067;SDS011;40965;52.368;9.712;2022-08-21T05:03:52;4.68;;;1.73;;
55067;SDS011;40965;52.368;9.712;2022-08-21T05:06:23;6.30;;;2.38;;
55067;SDS011;40965;52.368;9.712;2022-08-21T05:08:51;6.22;;;1.80;;
55067;SDS011;40965;52.368;9.712;2022-08-21T05:11:22;4.95;;;2.25;;
55067;SDS011;40965;52.368;9.712;2022-08-21T05:13:49;4.88;;;2.30;;
55067;SDS011;40965;52.368;9.712;2022-08-21T05:16:16;3.63;;;1.98;;
55067;SDS011;40965;52.368;9.712;2022-08-21T05:18:43;3.75;;;2.30;;
55067;SDS011;40965;52.368;9.712;2022-08-21T05:21:11;2.60;;;2.28;;
55067;SDS011;40965;52.368;9.712;2022-08-21T05:23:39;4.72;;;1.90;;
55067;SDS011;40965;52.368;9.712;2022-08-21T05:26:06;3.60;;;2.20;;
55067;SDS011;40965;52.368;9.712;2022-08-21T05:28:34;2.00;;;1.70;;
55067;SDS011;40965;52.368;9.712;2022-08-21T05:31:01;2.92;;;1.85;;
55067;SDS011;40965;52.368;9.712;2022-08-21T05:33:29;4.00;;;1.83;;
55067;SDS011;40965;52.368;9.712;2022-08-21T05:35:59;1.92;;;1.70;;
55067;SDS011;40965;52.368;9.712;2022-08-21T05:38:26;3.92;;;1.95;;
55067;SDS011;40965;52.368;9.712;2022-08-21T05:40:54;6.20;;;2.42;;
55067;SDS011;40965;52.368;9.712;2022-08-21T05:43:22;3.50;;;1.52;;
55067;SDS011;40965;52.368;9.712;2022-08-21T05:45:48;3.70;;;1.70;;
55067;SDS011;40965;52.368;9.712;2022-08-21T05:48:16;1.95;;;1.33;;
55067;SDS011;40965;52.368;9.712;2022-08-21T05:50:47;2.55;;;1.50;;
55067;SDS011;40965;52.368;9.712;2022-08-21T05:53:16;3.00;;;1.38;;
55067;SDS011;40965;52.368;9.712;2022-08-21T05:55:50;3.58;;;1.75;;
55067;SDS011;40965;52.368;9.712;2022-08-21T05:58:18;5.18;;;2.58;;
55067;SDS011;40965;52.368;9.712;2022-08-21T06:00:48;1.95;;;1.55;;
55067;SDS011;40965;52.368;9.712;2022-08-21T06:03:25;4.13;;;1.70;;
55067;SDS011;40965;52.368;9.712;2022-08-21T06:05:56;2.40;;;1.77;;
55067;SDS011;40965;52.368;9.712;2022-08-21T06:08:24;3.70;;;1.67;;
55067;SDS011;40965;52.368;9.712;2022-08-21T06:10:52;3.95;;;1.70;;
55067;SDS011;40965;52.368;9.712;2022-08-21T06:13:22;5.90;;;2.42;;
55067;SDS011;40965;52.368;9.712;2022-08-21T06:16:00;5.50;;;2.03;;
55067;SDS011;40965;52.368;9.712;2022-08-21T06:18:47;4.05;;;1.45;;
55067;SDS011;40965;52.368;9.712;2022-08-21T06:21:14;3.95;;;2.55;;
55067;SDS011;40965;52.368;9.712;2022-08-21T06:23:41;2.20;;;1.60;;
55067;SDS011;40965;52.368;9.712;2022-08-21T06:26:09;7.30;;;2.40;;
55067;SDS011;40965;52.368;9.712;2022-08-21T06:28:38;1.95;;;1.20;;
55067;SDS011;40965;52.368;9.712;2022-08-21T06:31:12;8.52;;;1.83;;
55067;SDS011;40965;52.368;9.712;2022-08-21T06:33:44;7.22;;;2.00;;
55067;SDS011;40965;52.368;9.712;2022-08-21T06:36:12;3.72;;;2.28;;
55067;SDS011;40965;52.368;9.712;2022-08-21T06:38:39;2.63;;;1.85;;
55067;SDS011;40965;52.368;9.712;2022-08-21T06:41:06;1.48;;;1.33;;
55067;SDS011;40965;52.368;9.712;2022-08-21T06:43:33;3.38;;;1.45;;
55067;SDS011;40965;52.368;9.712;2022-08-21T06:46:00;4.85;;;1.50;;
55067;SDS011;40965;52.368;9.712;2022-08-21T06:48:26;1.98;;;1.80;;
55067;SDS011;40965;52.368;9.712;2022-08-21T06:50:57;3.80;;;2.03;;
55067;SDS011;40965;52.368;9.712;2022-08-21T06:53:28;5.25;;;1.42;;
55067;SDS011;40965;52.368;9.712;2022-08-21T06:55:55;2.35;;;1.58;;
55067;SDS011;40965;52.368;9.712;2022-08-21T06:58:21;3.97;;;1.92;;
55067;SDS011;40965;52.368;9.712;2022-08-21T07:00:50;2.42;;;1.70;;
55067;SDS011;40965;52.368;9.712;2022-08-21T07:03:22;4.45;;;1.17;;
55067;SDS011;40965;52.368;9.712;2022-08-21T07:05:58;2.72;;;1.25;;
55067;SDS011;40965;52.368;9.712;2022-08-21T07:08:25;5.22;;;3.10;;
55067;SDS011;40965;52.368;9.712;2022-08-21T07:10:55;6.10;;;2.00;;
55067;SDS011;40965;52.368;9.712;2022-08-21T07:13:24;2.83;;;1.38;;
55067;SDS011;40965;52.368;9.712;2022-08-21T07:15:52;3.58;;;1.70;;
55067;SDS011;40965;52.368;9.712;2022-08-21T07:18:19;5.32;;;1.90;;
55067;SDS011;40965;52.368;9.712;2022-08-21T07:20:46;3.28;;;1.63;;
55067;SDS011;40965;52.368;9.712;2022-08-21T07:23:18;6.32;;;1.73;;
55067;SDS011;40965;52.368;9.712;2022-08-21T07:25:51;4.50;;;1.75;;
55067;SDS011;40965;52.368;9.712;2022-08-21T07:28:18;3.72;;;1.75;;
55067;SDS011;40965;52.368;9.712;2022-08-21T07:30:45;6.38;;;1.45;;
55067;SDS011;40965;52.368;9.712;2022-08-21T07:33:17;4.38;;;2.00;;
55067;SDS011;40965;52.368;9.712;2022-08-21T07:35:45;9.13;;;1.90;;
55067;SDS011;40965;52.368;9.712;2022-08-21T07:38:15;3.42;;;1.27;;
55067;SDS011;40965;52.368;9.712;2022-08-21T07:40:59;2.70;;;1.17;;
55067;SDS011;40965;52.368;9.712;2022-08-21T07:43:27;4.40;;;1.60;;
55067;SDS011;40965;52.368;9.712;2022-08-21T07:45:55;3.58;;;2.03;;
55067;SDS011;40965;52.368;9.712;2022-08-21T07:48:22;2.45;;;1.23;;
55067;SDS011;40965;52.368;9.712;2022-08-21T07:50:49;4.10;;;1.45;;
55067;SDS011;40965;52.368;9.712;2022-08-21T07:53:17;2.33;;;1.30;;
55067;SDS011;40965;52.368;9.712;2022-08-21T07:55:44;2.67;;;1.48;;
55067;SDS011;40965;52.368;9.712;2022-08-21T07:58:12;3.08;;;1.20;;
55067;SDS011;40965;52.368;9.712;2022-08-21T08:00:42;5.05;;;1.27;;
55067;SDS011;40965;52.368;9.712;2022-08-21T08:03:08;2.25;;;1.63;;
55067;SDS011;40965;52.368;9.712;2022-08-21T08:05:35;2.67;;;1.30;;
55067;SDS011;40965;52.368;9.712;2022-08-21T08:08:03;4.03;;;1.27;;
55067;SDS011;40965;52.368;9.712;2022-08-21T08:10:30;5.10;;;1.08;;
55067;SDS011;40965;52.368;9.712;2022-08-21T08:12:57;6.22;;;1.48;;
55067;SDS011;40965;52.368;9.712;2022-08-21T08:15:25;4.45;;;1.40;;
55067;SDS011;40965;52.368;9.712;2022-08-21T08:17:54;4.88;;;1.38;;
55067;SDS011;40965;52.368;9.712;2022-08-21T08:20:22;3.25;;;1.67;;
55067;SDS011;40965;52.368;9.712;2022-08-21T08:22:54;1.60;;;1.10;;
55067;SDS011;40965;52.368;9.712;2022-08-21T08:25:22;2.17;;;1.02;;
55067;SDS011;40965;52.368;9.712;2022-08-21T08:27:51;5.20;;;2.00;;
55067;SDS011;40965;52.368;9.712;2022-08-21T08:30:19;2.47;;;1.15;;
55067;SDS011;40965;52.368;9.712;2022-08-21T08:32:48;4.20;;;1.08;;
55067;SDS011;40965;52.368;9.712;2022-08-21T08:35:16;3.60;;;1.30;;
55067;SDS011;40965;52.368;9.712;2022-08-21T08:37:45;2.00;;;1.00;;
55067;SDS011;40965;52.368;9.712;2022-08-21T08:40:18;3.15;;;1.13;;
55067;SDS011;40965;52.368;9.712;2022-08-21T08:42:58;3.63;;;1.33;;
55067;SDS011;40965;52.368;9.712;2022-08-21T08:45:25;3.47;;;1.50;;
55067;SDS011;40965;52.368;9.712;2022-08-21T08:47:53;1.77;;;1.25;;
55067;SDS011;40965;52.368;9.712;2022-08-21T08:50:28;4.10;;;1.50;;
55067;SDS011;40965;52.368;9.712;2022-08-21T08:53:06;2.83;;;1.10;;
55067;SDS011;40965;52.368;9.712;2022-08-21T08:55:44;3.80;;;1.25;;
55067;SDS011;40965;52.368;9.712;2022-08-21T08:58:34;3.53;;;1.50;;
55067;SDS011;40965;52.368;9.712;2022-08-21T09:01:05;6.70;;;1.20;;
55067;SDS011;40965;52.368;9.712;2022-08-21T09:03:44;9.80;;;1.88;;
55067;SDS011;40965;52.368;9.712;2022-08-21T09:09:13;2.78;;;1.35;;
55067;SDS011;40965;52.368;9.712;2022-08-21T09:15:32;3.03;;;1.20;;
55067;SDS011;40965;52.368;9.712;2022-08-21T09:18:18;3.08;;;1.05;;
55067;SDS011;40965;52.368;9.712;2022-08-21T09:21:09;3.22;;;1.23;;
55067;SDS011;40965;52.368;9.712;2022-08-21T09:23:48;3.13;;;1.50;;
55067;SDS011;40965;52.368;9.712;2022-08-21T09:26:27;4.00;;;1.40;;
55067;SDS011;40965;52.368;9.712;2022-08-21T09:29:11;2.50;;;1.02;;
55067;SDS011;40965;52.368;9.712;2022-08-21T09:31:43;4.85;;;0.93;;
55067;SDS011;40965;52.368;9.712;2022-08-21T09:34:11;3.78;;;1.25;;
55067;SDS011;40965;52.368;9.712;2022-08-21T09:36:51;2.97;;;1.60;;
55067;SDS011;40965;52.368;9.712;2022-08-21T09:39:24;4.38;;;1.17;;
55067;SDS011;40965;52.368;9.712;2022-08-21T09:41:57;7.57;;;1.85;;
55067;SDS011;40965;52.368;9.712;2022-08-21T09:44:32;2.53;;;1.35;;
55067;SDS011;40965;52.368;9.712;2022-08-21T09:47:07;1.77;;;1.08;;
55067;SDS011;40965;52.368;9.712;2022-08-21T09:49:37;2.63;;;1.25;;
55067;SDS011;40965;52.368;9.712;2022-08-21T09:52:16;5.82;;;1.70;;
55067;SDS011;40965;52.368;9.712;2022-08-21T09:54:50;2.35;;;1.13;;
55067;SDS011;40965;52.368;9.712;2022-08-21T09:57:23;4.03;;;1.30;;
55067;SDS011;40965;52.368;9.712;2022-08-21T10:00:08;2.97;;;1.50;;
55067;SDS011;40965;52.368;9.712;2022-08-21T10:02:42;5.70;;;1.80;;
55067;SDS011;40965;52.368;9.712;2022-08-21T10:07:49;2.67;;;1.60;;
55067;SDS011;40965;52.368;9.712;2022-08-21T10:10:18;6.00;;;1.75;;
55067;SDS011;40965;52.368;9.712;2022-08-21T10:12:52;3.45;;;0.98;;
55067;SDS011;40965;52.368;9.712;2022-08-21T10:21:59;2.55;;;1.00;;
55067;SDS011;40965;52.368;9.712;2022-08-21T10:25:02;2.80;;;1.23;;
55067;SDS011;40965;52.368;9.712;2022-08-21T10:28:05;4.25;;;1.20;;
55067;SDS011;40965;52.368;9.712;2022-08-21T10:30:52;4.03;;;1.25;;
55067;SDS011;40965;52.368;9.712;2022-08-21T10:34:33;3.58;;;1.60;;
55067;SDS011;40965;52.368;9.712;2022-08-21T10:40:02;2.33;;;1.45;;
55067;SDS011;40965;52.368;9.712;2022-08-21T10:42:52;5.22;;;1.38;;
55067;SDS011;40965;52.368;9.712;2022-08-21T10:45:49;2.33;;;1.10;;
55067;SDS011;40965;52.368;9.712;2022-08-21T10:48:48;0.85;;;0.80;;
55067;SDS011;40965;52.368;9.712;2022-08-21T10:55:08;3.40;;;1.02;;
55067;SDS011;40965;52.368;9.712;2022-08-21T11:00:50;6.50;;;1.52;;
55067;SDS011;40965;52.368;9.712;2022-08-21T11:03:37;4.07;;;1.70;;
55067;SDS011;40965;52.368;9.712;2022-08-21T11:06:26;4.32;;;1.60;;
55067;SDS011;40965;52.368;9.712;2022-08-21T11:09:06;4.13;;;1.35;;
55067;SDS011;40965;52.368;9.712;2022-08-21T11:11:50;4.28;;;0.85;;
55067;SDS011;40965;52.368;9.712;2022-08-21T11:17:30;2.58;;;0.65;;
55067;SDS011;40965;52.368;9.712;2022-08-21T11:20:28;2.90;;;1.30;;
55067;SDS011;40965;52.368;9.712;2022-08-21T11:30:05;3.45;;;1.38;;
55067;SDS011;40965;52.368;9.712;2022-08-21T11:32:46;1.13;;;1.00;;
55067;SDS011;40965;52.368;9.712;2022-08-21T11:35:51;4.75;;;1.45;;
55067;SDS011;40965;52.368;9.712;2022-08-21T11:38:33;3.63;;;1.45;;
55067;SDS011;40965;52.368;9.712;2022-08-21T11:52:48;1.73;;;0.85;;
55067;SDS011;40965;52.368;9.712;2022-08-21T11:55:26;2.22;;;0.90;;
55067;SDS011;40965;52.368;9.712;2022-08-21T11:58:05;2.80;;;0.70;;
55067;SDS011;40965;52.368;9.712;2022-08-21T12:00:40;3.17;;;1.02;;
55067;SDS011;40965;52.368;9.712;2022-08-21T12:03:55;1.38;;;1.27;;
55067;SDS011;40965;52.368;9.712;2022-08-21T12:06:34;2.80;;;0.80;;
55067;SDS011;40965;52.368;9.712;2022-08-21T12:09:28;1.65;;;0.93;;
55067;SDS011;40965;52.368;9.712;2022-08-21T12:12:11;3.28;;;1.00;;
55067;SDS011;40965;52.368;9.712;2022-08-21T12:15:03;1.00;;;0.68;;
55067;SDS011;40965;52.368;9.712;2022-08-21T12:17:54;2.63;;;0.93;;
55067;SDS011;40965;52.368;9.712;2022-08-21T12:20:40;2.80;;;1.00;;
55067;SDS011;40965;52.368;9.712;2022-08-21T12:28:15;2.70;;;1.15;;
55067;SDS011;40965;52.368;9.712;2022-08-21T12:30:50;3.45;;;0.95;;
55067;SDS011;40965;52.368;9.712;2022-08-21T12:35:52;1.05;;;0.93;;
55067;SDS011;40965;52.368;9.712;2022-08-21T12:38:52;2.13;;;1.30;;
55067;SDS011;40965;52.368;9.712;2022-08-21T12:41:38;1.40;;;1.10;;
55067;SDS011;40965;52.368;9.712;2022-08-21T12:44:22;2.40;;;1.02;;
55067;SDS011;40965;52.368;9.712;2022-08-21T12:47:02;1.73;;;0.80;;
55067;SDS011;40965;52.368;9.712;2022-08-21T12:50:07;0.70;;;0.52;;
55067;SDS011;40965;52.368;9.712;2022-08-21T12:52:51;0.90;;;0.85;;
55067;SDS011;40965;52.368;9.712;2022-08-21T12:56:01;1.15;;;1.05;;
55067;SDS011;40965;52.368;9.712;2022-08-21T12:58:40;2.60;;;1.20;;
55067;SDS011;40965;52.368;9.712;2022-08-21T13:03:57;1.08;;;0.73;;
55067;SDS011;40965;52.368;9.712;2022-08-21T13:06:31;2.38;;;1.00;;
55067;SDS011;40965;52.368;9.712;2022-08-21T13:09:34;3.08;;;1.08;;
55067;SDS011;40965;52.368;9.712;2022-08-21T13:12:17;3.83;;;1.10;;
55067;SDS011;40965;52.368;9.712;2022-08-21T13:14:49;1.30;;;1.05;;
55067;SDS011;40965;52.368;9.712;2022-08-21T13:17:25;4.95;;;1.40;;
55067;SDS011;40965;52.368;9.712;2022-08-21T13:22:42;1.50;;;1.27;;
55067;SDS011;40965;52.368;9.712;2022-08-21T13:25:17;2.03;;;1.20;;
55067;SDS011;40965;52.368;9.712;2022-08-21T13:27:57;2.60;;;0.80;;
55067;SDS011;40965;52.368;9.712;2022-08-21T13:30:32;3.03;;;0.80;;
55067;SDS011;40965;52.368;9.712;2022-08-21T13:33:04;2.00;;;0.75;;
55067;SDS011;40965;52.368;9.712;2022-08-21T13:35:36;0.67;;;0.67;;
55067;SDS011;40965;52.368;9.712;2022-08-21T13:38:25;1.05;;;0.90;;
55067;SDS011;40965;52.368;9.712;2022-08-21T13:41:09;1.10;;;0.60;;
55067;SDS011;40965;52.368;9.712;2022-08-21T13:44:15;1.83;;;0.57;;
55067;SDS011;40965;52.368;9.712;2022-08-21T13:47:15;1.15;;;1.05;;
55067;SDS011;40965;52.368;9.712;2022-08-21T13:49:45;1.75;;;0.68;;
55067;SDS011;40965;52.368;9.712;2022-08-21T13:52:19;3.50;;;1.20;;
55067;SDS011;40965;52.368;9.712;2022-08-21T13:54:54;1.13;;;0.80;;
55067;SDS011;40965;52.368;9.712;2022-08-21T13:57:29;1.42;;;0.85;;
55067;SDS011;40965;52.368;9.712;2022-08-21T14:00:18;1.73;;;0.95;;
55067;SDS011;40965;52.368;9.712;2022-08-21T14:02:52;1.42;;;0.75;;
55067;SDS011;40965;52.368;9.712;2022-08-21T14:05:28;3.13;;;1.10;;
55067;SDS011;40965;52.368;9.712;2022-08-21T14:08:05;1.77;;;1.13;;
55067;SDS011;40965;52.368;9.712;2022-08-21T14:10:58;2.35;;;1.23;;
55067;SDS011;40965;52.368;9.712;2022-08-21T14:16:16;1.10;;;0.60;;
55067;SDS011;40965;52.368;9.712;2022-08-21T14:19:06;2.42;;;0.80;;
55067;SDS011;40965;52.368;9.712;2022-08-21T14:21:44;1.92;;;1.10;;
55067;SDS011;40965;52.368;9.712;2022-08-21T14:24:38;2.22;;;1.38;;
55067;SDS011;40965;52.368;9.712;2022-08-21T14:27:05;1.60;;;1.05;;
55067;SDS011;40965;52.368;9.712;2022-08-21T14:29:35;4.88;;;1.60;;
55067;SDS011;40965;52.368;9.712;2022-08-21T14:32:15;2.15;;;1.13;;
55067;SDS011;40965;52.368;9.712;2022-08-21T14:34:47;3.72;;;1.15;;
55067;SDS011;40965;52.368;9.712;2022-08-21T14:37:14;4.00;;;1.42;;
55067;SDS011;40965;52.368;9.712;2022-08-21T14:39:44;2.17;;;1.20;;
55067;SDS011;40965;52.368;9.712;2022-08-21T14:42:11;2.88;;;1.50;;
55067;SDS011;40965;52.368;9.712;2022-08-21T14:44:40;2.03;;;1.10;;
55067;SDS011;40965;52.368;9.712;2022-08-21T14:47:07;4.28;;;0.93;;
55067;SDS011;40965;52.368;9.712;2022-08-21T14:49:35;2.92;;;1.00;;
55067;SDS011;40965;52.368;9.712;2022-08-21T14:52:04;1.67;;;0.95;;
55067;SDS011;40965;52.368;9.712;2022-08-21T14:54:32;2.53;;;1.13;;
55067;SDS011;40965;52.368;9.712;2022-08-21T14:57:04;1.55;;;0.93;;
55067;SDS011;40965;52.368;9.712;2022-08-21T14:59:35;1.83;;;1.20;;
55067;SDS011;40965;52.368;9.712;2022-08-21T15:02:03;1.98;;;1.35;;
55067;SDS011;40965;52.368;9.712;2022-08-21T15:04:32;2.65;;;1.20;;
55067;SDS011;40965;52.368;9.712;2022-08-21T15:06:59;1.85;;;1.10;;
55067;SDS011;40965;52.368;9.712;2022-08-21T15:09:26;3.38;;;1.65;;
55067;SDS011;40965;52.368;9.712;2022-08-21T15:11:54;3.38;;;1.38;;
55067;SDS011;40965;52.368;9.712;2022-08-21T15:14:27;1.88;;;1.77;;
55067;SDS011;40965;52.368;9.712;2022-08-21T15:16:57;1.50;;;1.15;;
55067;SDS011;40965;52.368;9.712;2022-08-21T15:19:24;3.33;;;1.30;;
55067;SDS011;40965;52.368;9.712;2022-08-21T15:21:52;1.25;;;1.20;;
55067;SDS011;40965;52.368;9.712;2022-08-21T15:24:19;1.52;;;1.27;;
55067;SDS011;40965;52.368;9.712;2022-08-21T15:26:46;1.55;;;1.38;;
55067;SDS011;40965;52.368;9.712;2022-08-21T15:29:14;1.65;;;1.17;;
55067;SDS011;40965;52.368;9.712;2022-08-21T15:31:49;1.65;;;1.25;;
55067;SDS011;40965;52.368;9.712;2022-08-21T15:34:22;2.40;;;1.50;;
55067;SDS011;40965;52.368;9.712;2022-08-21T15:36:50;3.05;;;1.50;;
55067;SDS011;40965;52.368;9.712;2022-08-21T15:39:17;2.33;;;1.30;;
55067;SDS011;40965;52.368;9.712;2022-08-21T15:41:45;2.05;;;1.60;;
55067;SDS011;40965;52.368;9.712;2022-08-21T15:44:12;2.17;;;1.48;;
55067;SDS011;40965;52.368;9.712;2022-08-21T15:46:40;2.28;;;1.30;;
55067;SDS011;40965;52.368;9.712;2022-08-21T15:49:09;1.73;;;1.10;;
55067;SDS011;40965;52.368;9.712;2022-08-21T15:51:36;3.33;;;2.50;;
55067;SDS011;40965;52.368;9.712;2022-08-21T15:54:04;1.33;;;1.10;;
55067;SDS011;40965;52.368;9.712;2022-08-21T15:56:35;1.65;;;1.30;;
55067;SDS011;40965;52.368;9.712;2022-08-21T15:59:06;3.45;;;1.20;;
55067;SDS011;40965;52.368;9.712;2022-08-21T16:01:40;1.75;;;1.27;;
55067;SDS011;40965;52.368;9.712;2022-08-21T16:04:07;1.45;;;1.15;;
55067;SDS011;40965;52.368;9.712;2022-08-21T16:06:35;2.75;;;1.38;;
55067;SDS011;40965;52.368;9.712;2022-08-21T16:09:02;1.73;;;1.30;;
55067;SDS011;40965;52.368;9.712;2022-08-21T16:11:29;2.38;;;1.80;;
55067;SDS011;40965;52.368;9.712;2022-08-21T16:13:57;3.13;;;1.40;;
55067;SDS011;40965;52.368;9.712;2022-08-21T16:16:23;3.38;;;1.48;;
55067;SDS011;40965;52.368;9.712;2022-08-21T16:18:51;3.28;;;1.40;;
55067;SDS011;40965;52.368;9.712;2022-08-21T16:21:20;1.90;;;1.70;;
55067;SDS011;40965;52.368;9.712;2022-08-21T16:23:48;3.83;;;2.30;;
55067;SDS011;40965;52.368;9.712;2022-08-21T16:26:14;4.20;;;1.40;;